Taishunmaru — JD4207 — position and weather

sailwx.info

Track history (hours):
 
Tides and Currents Weather Stations Pressure Air Temp Water Temp Dewpoint Dewpoint Depression Visibility Wind Speed Wind Dir Waves Ship Positions

Taishunmaru

Last reported at 2017-Nov-20 00:30 UTC. Time now 2017-Nov-20 02:11 UTC.
Position N 35°31' E 139°45'.

Length 75 m; draft 3.9 m.

Type: Cargo ship. MMSI: 431009748.

Date/timePositionNaut miles runAvg speedWind from/ knotsBaromVisibWave heightAir tempDewpointWater temp
2017-Nov-20 00:30N 35°31' E 139°45'0 0.0
2017-Nov-20 00:00N 35°31' E 139°45'0 0.0
2017-Nov-19 23:30N 35°31' E 139°45'0 0.0
2017-Nov-19 23:00N 35°31' E 139°45'0 0.0
2017-Nov-19 22:30N 35°31' E 139°45'0 0.0
2017-Nov-19 22:00N 35°31' E 139°45'0 0.7
2017-Nov-19 21:30N 35°31' E 139°45'3 6.8
2017-Nov-19 21:00N 35°30' E 139°49'1 1.2
2017-Nov-19 20:31N 35°30' E 139°50'0 0.0
2017-Nov-19 19:57N 35°30' E 139°50'0 0.0
2017-Nov-19 19:25N 35°30' E 139°50'0 0.0
2017-Nov-19 19:00N 35°30' E 139°50'0 0.0
2017-Nov-19 18:31N 35°30' E 139°50'0 0.0
2017-Nov-19 18:01N 35°30' E 139°50'0 0.0
2017-Nov-19 17:28N 35°30' E 139°50'0 0.0
2017-Nov-19 16:57N 35°30' E 139°50'0 0.0
2017-Nov-19 16:27N 35°30' E 139°50'0 0.0
2017-Nov-19 16:00N 35°30' E 139°50'0 0.0
2017-Nov-19 15:31N 35°30' E 139°50'0 0.0
2017-Nov-19 15:01N 35°30' E 139°50'0 0.0
2017-Nov-19 14:31N 35°30' E 139°50'0 0.0
2017-Nov-19 14:01N 35°30' E 139°50'0 0.1
2017-Nov-19 13:30N 35°30' E 139°50'0 0.0
2017-Nov-19 13:00N 35°30' E 139°50'0 0.1
2017-Nov-19 12:30N 35°30' E 139°50'0 0.1
2017-Nov-19 12:00N 35°30' E 139°50'0 0.0
2017-Nov-19 11:30N 35°30' E 139°50'0 0.1
2017-Nov-19 11:00N 35°30' E 139°50'0 0.1
2017-Nov-19 10:30N 35°30' E 139°50'0 0.1
2017-Nov-19 10:00N 35°30' E 139°50'0 0.0
2017-Nov-19 09:30N 35°30' E 139°50'0 0.1
2017-Nov-19 09:00N 35°30' E 139°50'0 0.0
2017-Nov-19 08:27N 35°30' E 139°50'0 0.0
2017-Nov-19 08:00N 35°30' E 139°50'0 0.0
2017-Nov-19 07:30N 35°30' E 139°50'1 1.6
2017-Nov-19 07:00N 35°30' E 139°51'611.6
2017-Nov-19 06:30N 35°32' E 139°57'611.6
2017-Nov-19 06:00N 35°34' E 140°04'1 0.0
2017-Nov-17 10:01N 35°34' E 140°02'210.4
2017-Nov-17 09:51N 35°33' E 140°00'410.3
2017-Nov-17 09:28N 35°32' E 139°56'510.4
2017-Nov-17 09:00N 35°30' E 139°50'5 9.9
2017-Nov-17 08:30N 35°29' E 139°44'0 0.5
2017-Nov-17 07:57N 35°29' E 139°44'0 0.0
2017-Nov-17 07:31N 35°29' E 139°44'0 0.0
2017-Nov-17 06:57N 35°29' E 139°44'0 0.0
2017-Nov-17 06:24N 35°29' E 139°44'0 0.0
2017-Nov-17 05:54N 35°29' E 139°44'0 0.0
2017-Nov-17 05:24N 35°29' E 139°44'0 0.0
2017-Nov-17 04:57N 35°29' E 139°44'0 0.0
2017-Nov-17 04:30N 35°29' E 139°44'0 0.0
2017-Nov-17 04:00N 35°29' E 139°44'0 0.0
2017-Nov-17 03:30N 35°29' E 139°44'0 0.0
2017-Nov-17 03:00N 35°29' E 139°44'0 0.0
2017-Nov-17 02:12N 35°29' E 139°44'0 0.0
2017-Nov-17 02:00N 35°29' E 139°44'0 0.0
2017-Nov-17 01:30N 35°29' E 139°44'0 0.0
2017-Nov-17 01:00N 35°29' E 139°44'0 0.0
2017-Nov-17 00:30N 35°29' E 139°44'0 0.0
2017-Nov-17 00:00N 35°29' E 139°44'0 0.1
2017-Nov-16 23:31N 35°29' E 139°44'2 2.8
2017-Nov-16 22:56N 35°29' E 139°46'0 0.0
2017-Nov-16 22:29N 35°29' E 139°46'0 0.0
2017-Nov-16 21:59N 35°29' E 139°46'0 0.0
2017-Nov-16 21:29N 35°29' E 139°46'0 0.0
2017-Nov-16 20:59N 35°29' E 139°46'0 0.0
2017-Nov-16 20:29N 35°29' E 139°46'0 0.0
2017-Nov-16 19:59N 35°29' E 139°46'0 0.0
2017-Nov-16 19:26N 35°29' E 139°46'0 0.0
2017-Nov-16 18:59N 35°29' E 139°46'0 0.0
2017-Nov-16 18:29N 35°29' E 139°46'0 0.0
2017-Nov-16 17:59N 35°29' E 139°46'0 0.0
2017-Nov-16 17:29N 35°29' E 139°46'0 0.0
2017-Nov-16 16:59N 35°29' E 139°46'0 0.0
2017-Nov-16 16:29N 35°29' E 139°46'0 0.0
2017-Nov-16 15:59N 35°29' E 139°46'0 0.0
2017-Nov-16 15:26N 35°29' E 139°46'0 0.0
2017-Nov-16 14:59N 35°29' E 139°46'0 0.0
2017-Nov-16 14:29N 35°29' E 139°46'0 0.0
2017-Nov-16 13:59N 35°29' E 139°46'0 0.0
2017-Nov-16 13:29N 35°29' E 139°46'0 0.0
2017-Nov-16 12:59N 35°29' E 139°46'0 0.0
2017-Nov-16 12:29N 35°29' E 139°46'0 0.1
2017-Nov-16 11:59N 35°29' E 139°46'0 0.0
2017-Nov-16 11:29N 35°29' E 139°46'0 0.0
2017-Nov-16 10:56N 35°29' E 139°46'0 0.0
2017-Nov-16 10:29N 35°29' E 139°46'0 0.0
2017-Nov-16 09:59N 35°29' E 139°46'0 0.0
2017-Nov-16 09:26N 35°29' E 139°46'0 0.0
2017-Nov-16 08:59N 35°29' E 139°46'0 0.1
2017-Nov-16 08:29N 35°29' E 139°46'0 0.0
2017-Nov-16 07:59N 35°29' E 139°46'0 0.0
2017-Nov-16 07:26N 35°29' E 139°46'0 0.0
2017-Nov-16 06:59N 35°29' E 139°46'0 0.0
2017-Nov-16 06:29N 35°29' E 139°46'0 0.0
2017-Nov-16 05:59N 35°29' E 139°46'0 0.0
2017-Nov-16 05:26N 35°29' E 139°46'1 2.2
2017-Nov-16 05:00N 35°29' E 139°47'612.0
2017-Nov-16 04:30N 35°31' E 139°54'4 0.1
2017-Nov-15 00:34N 35°33' E 139°59'110.1
2017-Nov-15 00:30N 35°33' E 139°58'510.5
2017-Nov-15 00:00N 35°31' E 139°52'510.0
2017-Nov-14 23:30N 35°29' E 139°46'0 0.2
2017-Nov-14 23:00N 35°29' E 139°46'0 0.0
2017-Nov-14 22:30N 35°29' E 139°46'0 0.0
2017-Nov-14 22:00N 35°29' E 139°46'0 0.0
2017-Nov-14 21:30N 35°29' E 139°46'0 0.0
2017-Nov-14 21:00N 35°29' E 139°46'0 0.0
2017-Nov-14 20:27N 35°29' E 139°46'0 0.0
2017-Nov-14 20:00N 35°29' E 139°46'1 2.7
2017-Nov-14 19:30N 35°29' E 139°44'0 0.2
2017-Nov-14 18:59N 35°29' E 139°44'0 0.0
2017-Nov-14 18:29N 35°29' E 139°44'0 0.0
2017-Nov-14 17:53N 35°29' E 139°44'0 0.0
2017-Nov-14 17:26N 35°29' E 139°44'0 0.0
2017-Nov-14 16:53N 35°29' E 139°44'0 0.0
2017-Nov-14 16:29N 35°29' E 139°44'0 0.0
2017-Nov-14 15:53N 35°29' E 139°44'0 0.0
2017-Nov-14 15:23N 35°29' E 139°44'0 0.0
2017-Nov-14 14:59N 35°29' E 139°44'0 0.0
2017-Nov-14 14:29N 35°29' E 139°44'0 0.0
2017-Nov-14 13:59N 35°29' E 139°44'0 0.0
2017-Nov-14 13:29N 35°29' E 139°44'0 0.0
2017-Nov-14 12:59N 35°29' E 139°44'0 0.0
2017-Nov-14 12:29N 35°29' E 139°44'0 0.0
2017-Nov-14 11:41N 35°29' E 139°44'0 0.0
2017-Nov-14 11:29N 35°29' E 139°44'0 0.0
2017-Nov-14 10:59N 35°29' E 139°44'0 0.0
2017-Nov-14 10:23N 35°29' E 139°44'0 0.0
2017-Nov-14 09:59N 35°29' E 139°44'0 0.8
2017-Nov-14 09:30N 35°29' E 139°45'3 5.2
2017-Nov-14 09:00N 35°27' E 139°46'4 8.8
2017-Nov-14 08:30N 35°22' E 139°45'5 9.8
2017-Nov-14 08:00N 35°17' E 139°45'510.5
2017-Nov-14 07:30N 35°12' E 139°47'611.3
2017-Nov-14 07:00N 35°07' E 139°46'611.8
2017-Nov-14 06:30N 35°01' E 139°44'610.1
2017-Nov-14 05:57N 34°56' E 139°46'11 9.4
2017-Nov-14 04:44N 34°55' E 139°60'1910.7
2017-Nov-14 03:00N 35°04' E 140°19'  
2017-Nov-11 08:25N 34°56' E 140°03'1011.3
2017-Nov-11 07:34N 34°52' E 139°52'211.3
2017-Nov-11 07:23N 34°53' E 139°50'410.8
2017-Nov-11 06:59N 34°55' E 139°46'510.0
2017-Nov-11 06:30N 34°60' E 139°44'5 9.6
2017-Nov-11 06:00N 35°01' E 139°49'0 0.2
2017-Nov-11 05:31N 35°01' E 139°50'0 0.0
2017-Nov-11 05:01N 35°01' E 139°50'0 0.0
2017-Nov-11 04:31N 35°01' E 139°50'0 0.0
2017-Nov-11 04:01N 35°01' E 139°50'0 0.0
2017-Nov-11 03:30N 35°01' E 139°50'0 0.0
2017-Nov-11 03:00N 35°01' E 139°50'0 0.0
2017-Nov-11 02:29N 35°01' E 139°50'0 0.3
2017-Nov-11 02:00N 35°01' E 139°49'3 6.1
2017-Nov-11 01:30N 35°00' E 139°46'3 6.1
2017-Nov-11 01:00N 35°01' E 139°50'0 0.1
2017-Nov-11 00:30N 35°01' E 139°50'0 0.0
2017-Nov-11 00:00N 35°01' E 139°50'0 0.0
2017-Nov-10 23:29N 35°01' E 139°50'0 0.0
2017-Nov-10 23:01N 35°01' E 139°50'0 0.0
2017-Nov-10 22:30N 35°01' E 139°50'0 0.0
2017-Nov-10 22:00N 35°01' E 139°50'0 0.0
2017-Nov-10 21:30N 35°01' E 139°50'0 0.0
2017-Nov-10 21:00N 35°01' E 139°50'0 0.0
2017-Nov-10 20:31N 35°01' E 139°50'0 0.0
2017-Nov-10 20:00N 35°01' E 139°50'0 0.0
2017-Nov-10 19:31N 35°01' E 139°50'0 0.0
2017-Nov-10 19:00N 35°01' E 139°50'0 0.0
2017-Nov-10 18:30N 35°01' E 139°50'0 0.0
2017-Nov-10 18:01N 35°01' E 139°50'0 0.0
2017-Nov-10 17:30N 35°01' E 139°50'0 0.0
2017-Nov-10 17:00N 35°01' E 139°50'0 0.0
2017-Nov-10 16:30N 35°01' E 139°50'0 0.0
2017-Nov-10 16:01N 35°01' E 139°50'0 0.0
2017-Nov-10 15:30N 35°01' E 139°50'0 0.0
2017-Nov-10 14:58N 35°01' E 139°50'0 0.2
2017-Nov-10 14:25N 35°01' E 139°49'3 7.5
2017-Nov-10 14:00N 35°00' E 139°46'611.6
2017-Nov-10 13:30N 34°60' E 139°39'611.9
2017-Nov-10 12:59N 34°56' E 139°32'  
Track history (hours):
 
Tides and Currents Weather Stations Pressure Air Temp Water Temp Dewpoint Dewpoint Depression Visibility Wind Speed Wind Dir Waves Ship Positions

Taishunmaru

Last reported at 2017-Nov-20 00:30 UTC. Time now 2017-Nov-20 02:11 UTC.
Position N 35°31' E 139°45'.

Length 75 m; draft 3.9 m.

Type: Cargo ship. MMSI: 431009748.

Date/timePositionNaut miles runAvg speedWind from/ knotsBaromVisibWave heightAir tempDewpointWater temp
2017-Nov-20 00:30N 35°31' E 139°45'0 0.0
2017-Nov-20 00:00N 35°31' E 139°45'0 0.0
2017-Nov-19 23:30N 35°31' E 139°45'0 0.0
2017-Nov-19 23:00N 35°31' E 139°45'0 0.0
2017-Nov-19 22:30N 35°31' E 139°45'0 0.0
2017-Nov-19 22:00N 35°31' E 139°45'0 0.7
2017-Nov-19 21:30N 35°31' E 139°45'3 6.8
2017-Nov-19 21:00N 35°30' E 139°49'1 1.2
2017-Nov-19 20:31N 35°30' E 139°50'0 0.0
2017-Nov-19 19:57N 35°30' E 139°50'0 0.0
2017-Nov-19 19:25N 35°30' E 139°50'0 0.0
2017-Nov-19 19:00N 35°30' E 139°50'0 0.0
2017-Nov-19 18:31N 35°30' E 139°50'0 0.0
2017-Nov-19 18:01N 35°30' E 139°50'0 0.0
2017-Nov-19 17:28N 35°30' E 139°50'0 0.0
2017-Nov-19 16:57N 35°30' E 139°50'0 0.0
2017-Nov-19 16:27N 35°30' E 139°50'0 0.0
2017-Nov-19 16:00N 35°30' E 139°50'0 0.0
2017-Nov-19 15:31N 35°30' E 139°50'0 0.0
2017-Nov-19 15:01N 35°30' E 139°50'0 0.0
2017-Nov-19 14:31N 35°30' E 139°50'0 0.0
2017-Nov-19 14:01N 35°30' E 139°50'0 0.1
2017-Nov-19 13:30N 35°30' E 139°50'0 0.0
2017-Nov-19 13:00N 35°30' E 139°50'0 0.1
2017-Nov-19 12:30N 35°30' E 139°50'0 0.1
2017-Nov-19 12:00N 35°30' E 139°50'0 0.0
2017-Nov-19 11:30N 35°30' E 139°50'0 0.1
2017-Nov-19 11:00N 35°30' E 139°50'0 0.1
2017-Nov-19 10:30N 35°30' E 139°50'0 0.1
2017-Nov-19 10:00N 35°30' E 139°50'0 0.0
2017-Nov-19 09:30N 35°30' E 139°50'0 0.1
2017-Nov-19 09:00N 35°30' E 139°50'0 0.0
2017-Nov-19 08:27N 35°30' E 139°50'0 0.0
2017-Nov-19 08:00N 35°30' E 139°50'0 0.0
2017-Nov-19 07:30N 35°30' E 139°50'1 1.6
2017-Nov-19 07:00N 35°30' E 139°51'611.6
2017-Nov-19 06:30N 35°32' E 139°57'611.6
2017-Nov-19 06:00N 35°34' E 140°04'1 0.0
2017-Nov-17 10:01N 35°34' E 140°02'210.4
2017-Nov-17 09:51N 35°33' E 140°00'410.3
2017-Nov-17 09:28N 35°32' E 139°56'510.4
2017-Nov-17 09:00N 35°30' E 139°50'5 9.9
2017-Nov-17 08:30N 35°29' E 139°44'0 0.5
2017-Nov-17 07:57N 35°29' E 139°44'0 0.0
2017-Nov-17 07:31N 35°29' E 139°44'0 0.0
2017-Nov-17 06:57N 35°29' E 139°44'0 0.0
2017-Nov-17 06:24N 35°29' E 139°44'0 0.0
2017-Nov-17 05:54N 35°29' E 139°44'0 0.0
2017-Nov-17 05:24N 35°29' E 139°44'0 0.0
2017-Nov-17 04:57N 35°29' E 139°44'0 0.0
2017-Nov-17 04:30N 35°29' E 139°44'0 0.0
2017-Nov-17 04:00N 35°29' E 139°44'0 0.0
2017-Nov-17 03:30N 35°29' E 139°44'0 0.0
2017-Nov-17 03:00N 35°29' E 139°44'0 0.0
2017-Nov-17 02:12N 35°29' E 139°44'0 0.0
2017-Nov-17 02:00N 35°29' E 139°44'0 0.0
2017-Nov-17 01:30N 35°29' E 139°44'0 0.0
2017-Nov-17 01:00N 35°29' E 139°44'0 0.0
2017-Nov-17 00:30N 35°29' E 139°44'0 0.0
2017-Nov-17 00:00N 35°29' E 139°44'0 0.1
2017-Nov-16 23:31N 35°29' E 139°44'2 2.8
2017-Nov-16 22:56N 35°29' E 139°46'0 0.0
2017-Nov-16 22:29N 35°29' E 139°46'0 0.0
2017-Nov-16 21:59N 35°29' E 139°46'0 0.0
2017-Nov-16 21:29N 35°29' E 139°46'0 0.0
2017-Nov-16 20:59N 35°29' E 139°46'0 0.0
2017-Nov-16 20:29N 35°29' E 139°46'0 0.0
2017-Nov-16 19:59N 35°29' E 139°46'0 0.0
2017-Nov-16 19:26N 35°29' E 139°46'0 0.0
2017-Nov-16 18:59N 35°29' E 139°46'0 0.0
2017-Nov-16 18:29N 35°29' E 139°46'0 0.0
2017-Nov-16 17:59N 35°29' E 139°46'0 0.0
2017-Nov-16 17:29N 35°29' E 139°46'0 0.0
2017-Nov-16 16:59N 35°29' E 139°46'0 0.0
2017-Nov-16 16:29N 35°29' E 139°46'0 0.0
2017-Nov-16 15:59N 35°29' E 139°46'0 0.0
2017-Nov-16 15:26N 35°29' E 139°46'0 0.0
2017-Nov-16 14:59N 35°29' E 139°46'0 0.0
2017-Nov-16 14:29N 35°29' E 139°46'0 0.0
2017-Nov-16 13:59N 35°29' E 139°46'0 0.0
2017-Nov-16 13:29N 35°29' E 139°46'0 0.0
2017-Nov-16 12:59N 35°29' E 139°46'0 0.0
2017-Nov-16 12:29N 35°29' E 139°46'0 0.1
2017-Nov-16 11:59N 35°29' E 139°46'0 0.0
2017-Nov-16 11:29N 35°29' E 139°46'0 0.0
2017-Nov-16 10:56N 35°29' E 139°46'0 0.0
2017-Nov-16 10:29N 35°29' E 139°46'0 0.0
2017-Nov-16 09:59N 35°29' E 139°46'0 0.0
2017-Nov-16 09:26N 35°29' E 139°46'0 0.0
2017-Nov-16 08:59N 35°29' E 139°46'0 0.1
2017-Nov-16 08:29N 35°29' E 139°46'0 0.0
2017-Nov-16 07:59N 35°29' E 139°46'0 0.0
2017-Nov-16 07:26N 35°29' E 139°46'0 0.0
2017-Nov-16 06:59N 35°29' E 139°46'0 0.0
2017-Nov-16 06:29N 35°29' E 139°46'0 0.0
2017-Nov-16 05:59N 35°29' E 139°46'0 0.0
2017-Nov-16 05:26N 35°29' E 139°46'1 2.2
2017-Nov-16 05:00N 35°29' E 139°47'612.0
2017-Nov-16 04:30N 35°31' E 139°54'4 0.1
2017-Nov-15 00:34N 35°33' E 139°59'110.1
2017-Nov-15 00:30N 35°33' E 139°58'510.5
2017-Nov-15 00:00N 35°31' E 139°52'510.0
2017-Nov-14 23:30N 35°29' E 139°46'0 0.2
2017-Nov-14 23:00N 35°29' E 139°46'0 0.0
2017-Nov-14 22:30N 35°29' E 139°46'0 0.0
2017-Nov-14 22:00N 35°29' E 139°46'0 0.0
2017-Nov-14 21:30N 35°29' E 139°46'0 0.0
2017-Nov-14 21:00N 35°29' E 139°46'0 0.0
2017-Nov-14 20:27N 35°29' E 139°46'0 0.0
2017-Nov-14 20:00N 35°29' E 139°46'1 2.7
2017-Nov-14 19:30N 35°29' E 139°44'0 0.2
2017-Nov-14 18:59N 35°29' E 139°44'0 0.0
2017-Nov-14 18:29N 35°29' E 139°44'0 0.0
2017-Nov-14 17:53N 35°29' E 139°44'0 0.0
2017-Nov-14 17:26N 35°29' E 139°44'0 0.0
2017-Nov-14 16:53N 35°29' E 139°44'0 0.0
2017-Nov-14 16:29N 35°29' E 139°44'0 0.0
2017-Nov-14 15:53N 35°29' E 139°44'0 0.0
2017-Nov-14 15:23N 35°29' E 139°44'0 0.0
2017-Nov-14 14:59N 35°29' E 139°44'0 0.0
2017-Nov-14 14:29N 35°29' E 139°44'0 0.0
2017-Nov-14 13:59N 35°29' E 139°44'0 0.0
2017-Nov-14 13:29N 35°29' E 139°44'0 0.0
2017-Nov-14 12:59N 35°29' E 139°44'0 0.0
2017-Nov-14 12:29N 35°29' E 139°44'0 0.0
2017-Nov-14 11:41N 35°29' E 139°44'0 0.0
2017-Nov-14 11:29N 35°29' E 139°44'0 0.0
2017-Nov-14 10:59N 35°29' E 139°44'0 0.0
2017-Nov-14 10:23N 35°29' E 139°44'0 0.0
2017-Nov-14 09:59N 35°29' E 139°44'0 0.8
2017-Nov-14 09:30N 35°29' E 139°45'3 5.2
2017-Nov-14 09:00N 35°27' E 139°46'4 8.8
2017-Nov-14 08:30N 35°22' E 139°45'5 9.8
2017-Nov-14 08:00N 35°17' E 139°45'510.5
2017-Nov-14 07:30N 35°12' E 139°47'611.3
2017-Nov-14 07:00N 35°07' E 139°46'611.8
2017-Nov-14 06:30N 35°01' E 139°44'610.1
2017-Nov-14 05:57N 34°56' E 139°46'11 9.4
2017-Nov-14 04:44N 34°55' E 139°60'1910.7
2017-Nov-14 03:00N 35°04' E 140°19'  
2017-Nov-11 08:25N 34°56' E 140°03'1011.3
2017-Nov-11 07:34N 34°52' E 139°52'211.3
2017-Nov-11 07:23N 34°53' E 139°50'410.8
2017-Nov-11 06:59N 34°55' E 139°46'510.0
2017-Nov-11 06:30N 34°60' E 139°44'5 9.6
2017-Nov-11 06:00N 35°01' E 139°49'0 0.2
2017-Nov-11 05:31N 35°01' E 139°50'0 0.0
2017-Nov-11 05:01N 35°01' E 139°50'0 0.0
2017-Nov-11 04:31N 35°01' E 139°50'0 0.0
2017-Nov-11 04:01N 35°01' E 139°50'0 0.0
2017-Nov-11 03:30N 35°01' E 139°50'0 0.0
2017-Nov-11 03:00N 35°01' E 139°50'0 0.0
2017-Nov-11 02:29N 35°01' E 139°50'0 0.3
2017-Nov-11 02:00N 35°01' E 139°49'3 6.1
2017-Nov-11 01:30N 35°00' E 139°46'3 6.1
2017-Nov-11 01:00N 35°01' E 139°50'0 0.1
2017-Nov-11 00:30N 35°01' E 139°50'0 0.0
2017-Nov-11 00:00N 35°01' E 139°50'0 0.0
2017-Nov-10 23:29N 35°01' E 139°50'0 0.0
2017-Nov-10 23:01N 35°01' E 139°50'0 0.0
2017-Nov-10 22:30N 35°01' E 139°50'0 0.0
2017-Nov-10 22:00N 35°01' E 139°50'0 0.0
2017-Nov-10 21:30N 35°01' E 139°50'0 0.0
2017-Nov-10 21:00N 35°01' E 139°50'0 0.0
2017-Nov-10 20:31N 35°01' E 139°50'0 0.0
2017-Nov-10 20:00N 35°01' E 139°50'0 0.0
2017-Nov-10 19:31N 35°01' E 139°50'0 0.0
2017-Nov-10 19:00N 35°01' E 139°50'0 0.0
2017-Nov-10 18:30N 35°01' E 139°50'0 0.0
2017-Nov-10 18:01N 35°01' E 139°50'0 0.0
2017-Nov-10 17:30N 35°01' E 139°50'0 0.0
2017-Nov-10 17:00N 35°01' E 139°50'0 0.0
2017-Nov-10 16:30N 35°01' E 139°50'0 0.0
2017-Nov-10 16:01N 35°01' E 139°50'0 0.0
2017-Nov-10 15:30N 35°01' E 139°50'0 0.0
2017-Nov-10 14:58N 35°01' E 139°50'0 0.2
2017-Nov-10 14:25N 35°01' E 139°49'3 7.5
2017-Nov-10 14:00N 35°00' E 139°46'611.6
2017-Nov-10 13:30N 34°60' E 139°39'611.9
2017-Nov-10 12:59N 34°56' E 139°32'  

Dump ship's entire track history